Kezdőlap
METAR-TAF:

METAR-TAF

Repülőterek :

Dire Dawa, Etiópia

földrajzi szélesség: 09-36N, földrajzi hosszúság: 041-52E, magasság: 1146 m

METAR: hiányzik

Idő: 13:30 (10:30 UTC)

Előrejelzés

A jelentés 7 órával és 0 perccel ezelõtt készült, 03:30 UTC
Az előrejelzés 05-én 06 óra UTC és 06-én 12 óra UTC között érvényes
Dél-délnyugati szél 8 kt
Látótávolság 10 km, vagy több
Kevés felhő 2500 lábon
Szórványos felhőzet 9000 lábon
05-én 08 óra UTC és 05-én 05 óra UTC között fokozatosan kialakuló
Dél-délkeleti szél 6 kt
Szakadozott felhőzet 3000 lábon

TAF: HADR 050330Z 0506/0612 21008KT 9999 FEW025 SCT090 BECMG 0508/050511 16006KT BKN030

Meteorológiai megfigyelések és előrejelzések több, mint 4000 repülőtéren (METAR és TAF jelentéseket).

A térképen piros és sárga pontok jelzik az elérhető meteorológiai állomásokat.

Mozgassa az egeret a pont fölött, hogy megjelenjen az állomás neve.

Azután kattintson az időjárási megfigyelések és előrejelzések megtekintéséhez.

A térkép megváltoztatása: kattintson a fekete keresztel jelölt zöld gombra ráközelítéshez, a vonallal jelölt zöld gombra távolításhoz, vagy a zöld nyilakra a szomszédos térképek eléréséhez.


METAR-TAF: